Time;durP1;ratioP1;P1;durP2;ratioP2;P2;SDS_P1;SDS_P2;PMS_P1;PMS_P2;Temp;Humidity;BMP_temperature;BMP_pressure;BME280_temperature;BME280_humidity;BME280_pressure;Samples;Min_cycle;Max_cycle;Signal;HPM_P1;HPM_P2
2022/12/10 00:03:18;;;;;;;22.58;9.13;;;;;;;;;;10425544;28;20128;-79
2022/12/10 00:08:18;;;;;;;27.23;10.10;;;;;;;;;;10429995;28;20075;-78
2022/12/10 00:13:18;;;;;;;23.73;10.73;;;;;;;;;;10405302;28;20098;-79
2022/12/10 00:18:18;;;;;;;22.42;10.57;;;;;;;;;;10398930;28;20024;-74
2022/12/10 00:23:19;;;;;;;24.10;9.40;;;;;;;;;;10430230;28;20051;-75
2022/12/10 00:28:19;;;;;;;23.80;9.10;;;;;;;;;;10429040;28;20013;-78
2022/12/10 00:33:19;;;;;;;27.27;10.13;;;;;;;;;;10430305;28;20028;-73
2022/12/10 00:38:19;;;;;;;20.98;9.27;;;;;;;;;;10429517;28;20462;-78
2022/12/10 00:43:20;;;;;;;23.23;8.60;;;;;;;;;;10428500;28;20374;-74
2022/12/10 00:48:20;;;;;;;17.60;8.50;;;;;;;;;;10428918;28;20460;-73
2022/12/10 00:53:21;;;;;;;19.52;8.05;;;;;;;;;;10446815;28;20036;-73
2022/12/10 00:58:21;;;;;;;34.30;11.07;;;;;;;;;;10428406;28;20649;-74
2022/12/10 01:03:21;;;;;;;28.05;9.38;;;;;;;;;;10428234;28;20487;-76
2022/12/10 01:08:21;;;;;;;28.88;10.20;;;;;;;;;;10421755;28;20569;-75
2022/12/10 01:13:22;;;;;;;27.98;10.27;;;;;;;;;;10428451;28;20558;-77
2022/12/10 01:18:22;;;;;;;24.17;9.75;;;;;;;;;;10428316;28;20501;-78
2022/12/10 01:23:22;;;;;;;31.15;10.32;;;;;;;;;;10427681;28;20055;-77
2022/12/10 01:28:22;;;;;;;22.05;8.98;;;;;;;;;;10426223;28;20028;-74
2022/12/10 01:33:23;;;;;;;20.75;9.10;;;;;;;;;;10385937;28;20487;-73
2022/12/10 01:38:23;;;;;;;35.80;9.80;;;;;;;;;;10418757;28;20029;-78
2022/12/10 01:43:23;;;;;;;23.70;9.02;;;;;;;;;;10421534;28;20025;-74
2022/12/10 01:48:23;;;;;;;22.45;7.72;;;;;;;;;;10425353;28;20040;-75
2022/12/10 01:53:24;;;;;;;21.25;8.55;;;;;;;;;;10456887;28;20655;-75
2022/12/10 01:58:24;;;;;;;26.33;8.75;;;;;;;;;;10451632;28;20457;-74
2022/12/10 02:03:31;;;;;;;17.10;7.25;;;;;;;;;;10431937;28;20079;-77
2022/12/10 02:08:58;;;;;;;20.50;8.00;;;;;;;;;;10427551;28;20106;-74
2022/12/10 02:14:18;;;;;;;17.85;6.82;;;;;;;;;;10420518;28;20075;-74
2022/12/10 02:19:18;;;;;;;17.50;7.47;;;;;;;;;;10442804;28;20045;-78
2022/12/10 02:24:23;;;;;;;18.50;7.20;;;;;;;;;;10425570;28;20028;-73
2022/12/10 02:29:25;;;;;;;25.52;8.30;;;;;;;;;;10424313;28;20031;-76
2022/12/10 02:34:27;;;;;;;23.00;7.30;;;;;;;;;;10425071;28;20029;-74
2022/12/10 02:39:29;;;;;;;21.75;7.45;;;;;;;;;;10425395;28;20074;-77
2022/12/10 02:44:30;;;;;;;29.55;7.75;;;;;;;;;;10426015;28;20029;-74
2022/12/10 02:49:32;;;;;;;25.58;8.20;;;;;;;;;;10427973;28;20456;-74
2022/12/10 02:54:37;;;;;;;18.75;7.97;;;;;;;;;;10426894;28;20463;-74
2022/12/10 02:59:48;;;;;;;16.75;8.43;;;;;;;;;;10423704;28;20025;-74
2022/12/10 03:04:48;;;;;;;21.45;7.28;;;;;;;;;;10427243;28;20477;-77
2022/12/10 03:09:53;;;;;;;15.68;6.53;;;;;;;;;;10424392;28;20033;-77
2022/12/10 03:14:56;;;;;;;21.35;7.30;;;;;;;;;;10423677;28;20490;-72
2022/12/10 03:19:57;;;;;;;15.45;5.97;;;;;;;;;;10423791;28;20035;-74
2022/12/10 03:24:58;;;;;;;24.20;6.57;;;;;;;;;;10424408;28;20025;-74
2022/12/10 03:29:59;;;;;;;15.05;6.25;;;;;;;;;;10423342;28;20025;-78
2022/12/10 03:35:00;;;;;;;12.73;5.68;;;;;;;;;;10423711;28;20398;-79
2022/12/10 03:40:01;;;;;;;15.93;5.97;;;;;;;;;;10423440;28;20094;-74
2022/12/10 03:45:01;;;;;;;16.65;6.07;;;;;;;;;;10423159;28;20021;-80
2022/12/10 03:50:02;;;;;;;13.70;6.90;;;;;;;;;;10423834;28;20025;-74
2022/12/10 03:55:03;;;;;;;10.05;4.85;;;;;;;;;;10422724;28;20271;-73
2022/12/10 04:00:04;;;;;;;27.10;5.53;;;;;;;;;;10406327;28;20114;-77
2022/12/10 04:05:06;;;;;;;14.52;5.28;;;;;;;;;;10431348;28;20054;-73
2022/12/10 04:10:06;;;;;;;15.88;5.05;;;;;;;;;;10433269;28;20482;-75
2022/12/10 04:31:04;;;;;;;13.40;4.70;;;;;;;;;;10448352;28;20025;-78
2022/12/10 04:36:06;;;;;;;23.50;6.18;;;;;;;;;;10447567;28;20025;-75
2022/12/10 04:41:15;;;;;;;9.93;4.57;;;;;;;;;;10413273;28;20115;-78
2022/12/10 04:46:15;;;;;;;10.63;5.38;;;;;;;;;;10428834;28;20021;-73
2022/12/10 04:51:16;;;;;;;16.23;6.90;;;;;;;;;;10446583;28;20033;-73
2022/12/10 04:56:17;;;;;;;21.08;8.18;;;;;;;;;;10429052;28;20021;-75
2022/12/10 05:01:20;;;;;;;17.27;8.57;;;;;;;;;;10428227;28;20029;-77
2022/12/10 05:06:21;;;;;;;19.92;8.80;;;;;;;;;;10403382;28;20581;-75
2022/12/10 05:11:22;;;;;;;40.88;8.98;;;;;;;;;;10411649;28;20037;-83
2022/12/10 05:16:25;;;;;;;18.83;8.57;;;;;;;;;;10426573;28;20024;-80
2022/12/10 05:23:27;;;;;;;18.02;7.53;;;;;;;;;;10427273;28;20025;-76
2022/12/10 05:26:51;;;;;;;13.80;6.13;;;;;;;;;;10443998;28;20413;-75
2022/12/10 05:31:51;;;;;;;18.55;7.05;;;;;;;;;;10417111;28;20025;-74
2022/12/10 05:36:51;;;;;;;19.13;7.33;;;;;;;;;;10426774;28;20426;-75
2022/12/10 05:41:52;;;;;;;18.05;7.95;;;;;;;;;;10444223;28;20028;-75
2022/12/10 05:46:52;;;;;;;16.90;8.05;;;;;;;;;;10442661;28;20029;-74
2022/12/10 05:51:56;;;;;;;17.38;8.55;;;;;;;;;;10426468;28;20020;-76
2022/12/10 05:56:56;;;;;;;23.73;10.05;;;;;;;;;;10425501;28;20051;-74
2022/12/10 06:01:56;;;;;;;26.60;10.32;;;;;;;;;;10425527;28;20020;-74
2022/12/10 06:06:57;;;;;;;36.63;12.32;;;;;;;;;;10425694;28;20099;-77
2022/12/10 06:11:57;;;;;;;34.08;12.70;;;;;;;;;;10425234;28;20033;-76
2022/12/10 06:16:57;;;;;;;26.30;10.05;;;;;;;;;;10424913;28;20021;-75
2022/12/10 06:21:58;;;;;;;20.83;10.45;;;;;;;;;;10425160;28;20039;-77
2022/12/10 06:26:58;;;;;;;25.15;11.73;;;;;;;;;;10454180;28;20033;-73
2022/12/10 06:31:58;;;;;;;32.50;14.43;;;;;;;;;;10419119;28;20116;-75
2022/12/10 06:36:59;;;;;;;21.10;10.88;;;;;;;;;;10460178;28;20021;-78
2022/12/10 06:41:59;;;;;;;20.90;10.93;;;;;;;;;;10432106;28;20039;-76
2022/12/10 06:46:59;;;;;;;24.98;10.65;;;;;;;;;;10423543;28;20309;-74
2022/12/10 06:52:00;;;;;;;30.53;12.83;;;;;;;;;;10440820;28;20036;-74
2022/12/10 06:57:00;;;;;;;23.58;10.70;;;;;;;;;;10420580;28;20056;-74
2022/12/10 07:02:01;;;;;;;28.73;12.52;;;;;;;;;;10417947;28;20047;-76
2022/12/10 07:07:02;;;;;;;24.40;11.27;;;;;;;;;;10401808;28;20057;-74
2022/12/10 07:12:02;;;;;;;31.03;12.53;;;;;;;;;;10420107;28;20032;-73
2022/12/10 07:17:02;;;;;;;24.40;12.87;;;;;;;;;;10417952;28;20263;-72
2022/12/10 07:22:02;;;;;;;34.47;12.73;;;;;;;;;;10423656;28;20556;-73
2022/12/10 07:27:06;;;;;;;25.40;11.50;;;;;;;;;;10417770;28;20082;-76
2022/12/10 07:32:06;;;;;;;24.67;11.18;;;;;;;;;;10421043;28;20086;-76
2022/12/10 07:37:07;;;;;;;29.17;12.03;;;;;;;;;;10440078;28;20388;-73
2022/12/10 07:42:07;;;;;;;32.10;12.93;;;;;;;;;;10440636;28;20112;-74
2022/12/10 07:47:07;;;;;;;34.53;12.75;;;;;;;;;;10413020;28;20434;-77
2022/12/10 07:52:08;;;;;;;27.08;13.23;;;;;;;;;;10422908;28;20112;-74
2022/12/10 07:57:08;;;;;;;35.85;12.05;;;;;;;;;;10429563;28;20024;-78
2022/12/10 08:02:09;;;;;;;35.07;13.10;;;;;;;;;;10426202;28;20025;-73
2022/12/10 08:07:09;;;;;;;24.30;11.65;;;;;;;;;;10419948;28;20049;-76
2022/12/10 08:12:09;;;;;;;30.48;13.82;;;;;;;;;;10448256;28;20029;-72
2022/12/10 08:17:10;;;;;;;25.87;12.23;;;;;;;;;;10427025;28;20029;-77
2022/12/10 08:22:10;;;;;;;50.25;21.45;;;;;;;;;;10406412;28;20514;-73
2022/12/10 08:27:10;;;;;;;59.17;34.53;;;;;;;;;;10412018;28;20033;-74
2022/12/10 08:32:10;;;;;;;67.30;38.53;;;;;;;;;;10398147;28;20494;-75
2022/12/10 08:37:11;;;;;;;48.58;27.85;;;;;;;;;;10426659;28;20558;-73
2022/12/10 08:42:11;;;;;;;36.45;18.17;;;;;;;;;;10423410;28;20025;-77
2022/12/10 08:47:11;;;;;;;36.85;16.35;;;;;;;;;;10408886;28;20029;-73
2022/12/10 08:52:11;;;;;;;37.38;12.88;;;;;;;;;;10429333;28;20035;-75
2022/12/10 08:57:12;;;;;;;26.48;12.30;;;;;;;;;;10436915;28;20052;-75
2022/12/10 09:02:12;;;;;;;21.77;12.27;;;;;;;;;;10424313;28;20024;-73
2022/12/10 09:07:13;;;;;;;22.90;12.10;;;;;;;;;;10406505;28;20073;-74
2022/12/10 09:12:13;;;;;;;30.75;12.88;;;;;;;;;;10423169;28;20040;-73
2022/12/10 09:17:14;;;;;;;27.55;12.65;;;;;;;;;;10426533;28;20025;-76
2022/12/10 09:22:14;;;;;;;29.67;13.93;;;;;;;;;;10406758;28;20036;-75
2022/12/10 09:27:20;;;;;;;29.77;13.73;;;;;;;;;;10423394;28;20033;-73
2022/12/10 09:32:20;;;;;;;26.55;14.30;;;;;;;;;;10426775;28;20063;-74
2022/12/10 09:37:21;;;;;;;31.48;13.45;;;;;;;;;;10443635;28;20108;-73
2022/12/10 09:42:24;;;;;;;33.22;14.25;;;;;;;;;;10421603;28;20094;-74
2022/12/10 09:47:29;;;;;;;34.90;14.68;;;;;;;;;;10422587;28;20537;-73
2022/12/10 09:52:35;;;;;;;31.90;14.13;;;;;;;;;;10425408;28;20033;-75
2022/12/10 09:57:38;;;;;;;32.45;14.43;;;;;;;;;;10423750;28;20533;-76
2022/12/10 10:02:38;;;;;;;33.67;14.98;;;;;;;;;;10422429;28;20495;-78
2022/12/10 10:07:44;;;;;;;27.33;14.40;;;;;;;;;;10426495;28;20057;-75
2022/12/10 10:12:44;;;;;;;26.02;12.63;;;;;;;;;;10423762;28;20112;-75
2022/12/10 10:17:46;;;;;;;26.13;12.18;;;;;;;;;;10419704;28;20031;-74
2022/12/10 10:22:47;;;;;;;24.90;12.02;;;;;;;;;;10441107;28;20032;-74
2022/12/10 10:27:47;;;;;;;20.27;11.83;;;;;;;;;;10404489;28;20032;-75
2022/12/10 10:32:51;;;;;;;21.55;11.23;;;;;;;;;;10438377;28;20438;-74
2022/12/10 10:37:52;;;;;;;23.20;12.32;;;;;;;;;;10418354;28;20117;-73
2022/12/10 10:42:55;;;;;;;26.73;13.70;;;;;;;;;;10419804;28;20029;-73
2022/12/10 10:48:14;;;;;;;29.40;12.48;;;;;;;;;;10421330;28;20075;-73
2022/12/10 10:53:21;;;;;;;24.90;10.23;;;;;;;;;;10422201;28;20058;-75
2022/12/10 10:58:22;;;;;;;20.70;10.52;;;;;;;;;;10421348;28;20028;-76
2022/12/10 11:03:22;;;;;;;24.88;10.30;;;;;;;;;;10420864;28;20029;-73
2022/12/10 11:08:24;;;;;;;21.25;9.88;;;;;;;;;;10436938;28;20045;-73
2022/12/10 11:13:26;;;;;;;25.58;11.43;;;;;;;;;;10420650;28;20053;-74
2022/12/10 11:18:27;;;;;;;21.90;10.65;;;;;;;;;;10424763;28;20134;-76
2022/12/10 11:23:28;;;;;;;19.00;10.00;;;;;;;;;;10426649;28;20343;-75
2022/12/10 11:28:37;;;;;;;23.05;9.55;;;;;;;;;;10432038;28;20079;-75
2022/12/10 11:33:52;;;;;;;23.20;8.27;;;;;;;;;;10435844;28;20071;-74
2022/12/10 11:38:56;;;;;;;28.30;9.48;;;;;;;;;;10431844;28;20337;-75
2022/12/10 11:43:56;;;;;;;20.02;8.95;;;;;;;;;;10449283;28;20037;-77
2022/12/10 11:49:15;;;;;;;12.93;7.20;;;;;;;;;;10429164;28;20017;-73
2022/12/10 11:54:33;;;;;;;21.15;9.70;;;;;;;;;;10426993;28;20815;-74
2022/12/10 11:59:52;;;;;;;22.80;8.18;;;;;;;;;;10428452;28;20402;-75
2022/12/10 12:05:07;;;;;;;22.30;9.05;;;;;;;;;;10427777;28;20044;-74
2022/12/10 12:10:46;;;;;;;24.83;10.05;;;;;;;;;;10427765;28;20025;-77
2022/12/10 12:15:46;;;;;;;;;;;;;;;;;;10194221;28;20104;-77
2022/12/10 12:20:53;;;;;;;20.40;6.63;;;;;;;;;;10381046;28;20483;-73
2022/12/10 12:25:56;;;;;;;14.57;7.28;;;;;;;;;;10424037;28;20017;-74
2022/12/10 12:31:15;;;;;;;16.00;7.57;;;;;;;;;;10427858;28;20366;-73
2022/12/10 12:36:23;;;;;;;15.23;7.47;;;;;;;;;;10426157;28;20033;-73
2022/12/10 12:41:37;;;;;;;20.02;6.85;;;;;;;;;;10410934;28;20134;-74
2022/12/10 12:46:40;;;;;;;18.52;8.30;;;;;;;;;;10426604;28;20024;-74
2022/12/10 12:51:48;;;;;;;17.27;6.78;;;;;;;;;;10427559;28;20029;-73
2022/12/10 12:56:48;;;;;;;16.60;6.50;;;;;;;;;;10426221;28;20039;-80
2022/12/10 13:01:51;;;;;;;19.67;7.45;;;;;;;;;;10427682;28;20328;-75
2022/12/10 13:07:10;;;;;;;18.50;9.35;;;;;;;;;;10426035;28;20072;-74
2022/12/10 13:12:28;;;;;;;22.08;7.90;;;;;;;;;;10424864;28;20098;-77
2022/12/10 13:17:38;;;;;;;21.40;7.15;;;;;;;;;;10440707;28;20016;-78
2022/12/10 13:22:38;;;;;;;23.90;10.13;;;;;;;;;;10417670;28;20028;-77
2022/12/10 13:27:39;;;;;;;21.30;8.73;;;;;;;;;;10443267;28;20025;-74
2022/12/10 13:32:39;;;;;;;29.35;10.20;;;;;;;;;;10442772;28;20271;-75
2022/12/10 13:37:49;;;;;;;20.70;9.57;;;;;;;;;;10424471;28;20082;-74
2022/12/10 13:48:18;;;;;;;21.75;9.52;;;;;;;;;;10440769;28;20479;-76
2022/12/10 13:53:32;;;;;;;29.63;9.20;;;;;;;;;;10423438;28;20123;-74
2022/12/10 13:58:50;;;;;;;26.02;10.90;;;;;;;;;;10444928;28;20024;-73
2022/12/10 14:03:59;;;;;;;23.67;9.13;;;;;;;;;;10420925;28;20032;-73
2022/12/10 14:09:06;;;;;;;23.33;9.80;;;;;;;;;;10441625;28;20148;-74
2022/12/10 14:14:09;;;;;;;358.92;115.53;;;;;;;;;;10423500;28;20116;-74
2022/12/10 14:19:12;;;;;;;26.63;11.02;;;;;;;;;;10435979;28;20521;-76
2022/12/10 14:24:30;;;;;;;19.48;9.90;;;;;;;;;;10414430;28;20593;-74
2022/12/10 14:29:30;;;;;;;40.58;10.43;;;;;;;;;;10430841;28;20096;-75
2022/12/10 14:34:31;;;;;;;24.23;9.38;;;;;;;;;;10444798;28;20034;-75
2022/12/10 14:39:33;;;;;;;31.80;8.50;;;;;;;;;;10422672;28;20021;-72
2022/12/10 14:44:37;;;;;;;91.35;27.23;;;;;;;;;;10422058;28;20021;-77
2022/12/10 14:49:41;;;;;;;40.35;14.60;;;;;;;;;;10403209;28;20021;-73
2022/12/10 14:54:42;;;;;;;28.17;10.50;;;;;;;;;;10422420;28;20024;-76
2022/12/10 14:59:46;;;;;;;26.80;10.57;;;;;;;;;;10422490;28;20021;-75
2022/12/10 15:04:48;;;;;;;26.83;9.63;;;;;;;;;;10440183;28;20114;-75
2022/12/10 15:09:49;;;;;;;23.50;9.57;;;;;;;;;;10406116;28;20021;-75
2022/12/10 15:14:49;;;;;;;27.02;9.32;;;;;;;;;;10420827;28;20095;-74
2022/12/10 15:19:50;;;;;;;32.60;10.63;;;;;;;;;;10416526;28;20079;-75
2022/12/10 15:24:50;;;;;;;33.53;10.38;;;;;;;;;;10439042;28;20027;-74
2022/12/10 15:29:51;;;;;;;28.70;10.13;;;;;;;;;;10436925;28;20566;-73
2022/12/10 15:34:59;;;;;;;31.85;9.27;;;;;;;;;;10419591;28;20406;-74
2022/12/10 15:40:00;;;;;;;;;;;;;;;;;;10420502;28;20078;-79
2022/12/10 15:45:10;;;;;;;30.83;14.52;;;;;;;;;;10420433;28;19919;-74
2022/12/10 15:50:10;;;;;;;32.15;11.15;;;;;;;;;;10438044;28;20039;-75
2022/12/10 15:55:13;;;;;;;25.38;10.88;;;;;;;;;;10438468;28;20019;-73
2022/12/10 16:00:18;;;;;;;33.88;12.35;;;;;;;;;;10412905;28;20163;-74
2022/12/10 16:05:21;;;;;;;38.42;14.05;;;;;;;;;;10405475;28;20138;-75
2022/12/10 16:10:22;;;;;;;31.70;14.38;;;;;;;;;;10401450;28;20152;-74
2022/12/10 16:15:24;;;;;;;30.27;13.82;;;;;;;;;;10427762;28;20087;-72
2022/12/10 16:20:26;;;;;;;27.65;14.40;;;;;;;;;;10425272;28;20017;-75
2022/12/10 16:25:27;;;;;;;34.55;12.05;;;;;;;;;;10405836;28;20021;-73
2022/12/10 16:30:34;;;;;;;20.40;8.98;;;;;;;;;;10404685;28;20025;-73
2022/12/10 16:35:34;;;;;;;14.35;7.68;;;;;;;;;;10417071;28;20052;-73
2022/12/10 16:40:35;;;;;;;14.95;5.47;;;;;;;;;;10414541;28;20135;-77
2022/12/10 16:45:37;;;;;;;14.45;5.82;;;;;;;;;;10409663;28;20028;-78
2022/12/10 16:50:38;;;;;;;12.85;7.18;;;;;;;;;;10412565;28;20167;-77
2022/12/10 16:55:39;;;;;;;19.67;6.18;;;;;;;;;;10428553;28;20084;-73
2022/12/10 17:00:43;;;;;;;33.95;11.73;;;;;;;;;;10425721;28;20480;-74
2022/12/10 17:05:43;;;;;;;26.50;10.93;;;;;;;;;;10436561;28;20041;-74
2022/12/10 17:16:03;;;;;;;29.80;12.20;;;;;;;;;;10431328;28;20558;-74
2022/12/10 17:21:03;;;;;;;35.10;13.30;;;;;;;;;;10413858;28;20163;-74
2022/12/10 17:26:03;;;;;;;36.17;14.40;;;;;;;;;;10417088;28;20502;-72
2022/12/10 17:31:04;;;;;;;34.80;12.97;;;;;;;;;;10430076;28;20025;-74
2022/12/10 17:36:05;;;;;;;27.35;10.80;;;;;;;;;;10410040;28;20029;-77
2022/12/10 17:41:07;;;;;;;15.57;6.53;;;;;;;;;;10402776;28;20033;-78
2022/12/10 17:46:08;;;;;;;23.58;8.02;;;;;;;;;;10415178;28;20441;-75
2022/12/10 17:51:10;;;;;;;19.17;7.20;;;;;;;;;;10420642;28;20025;-74
2022/12/10 17:56:15;;;;;;;14.32;6.00;;;;;;;;;;10422501;28;20430;-77
2022/12/10 18:01:18;;;;;;;15.90;6.15;;;;;;;;;;10407660;28;20045;-77
2022/12/10 18:06:20;;;;;;;15.77;6.45;;;;;;;;;;10422244;28;20608;-76
2022/12/10 18:11:22;;;;;;;15.88;6.35;;;;;;;;;;10419145;28;20039;-78
2022/12/10 18:16:27;;;;;;;17.13;7.20;;;;;;;;;;10404044;28;20104;-78
2022/12/10 18:21:27;;;;;;;18.60;7.32;;;;;;;;;;10411688;28;20025;-76
2022/12/10 18:26:27;;;;;;;17.42;7.13;;;;;;;;;;10419965;28;20449;-76
2022/12/10 18:31:29;;;;;;;16.92;7.05;;;;;;;;;;10420160;28;20028;-76
2022/12/10 18:36:32;;;;;;;14.63;7.18;;;;;;;;;;10440223;28;20021;-74
2022/12/10 18:41:35;;;;;;;18.08;8.02;;;;;;;;;;10440129;28;20059;-76
2022/12/10 18:46:36;;;;;;;24.83;9.10;;;;;;;;;;10417593;28;20017;-76
2022/12/10 18:51:37;;;;;;;18.13;7.15;;;;;;;;;;10422292;28;20384;-78
2022/12/10 18:56:38;;;;;;;17.80;6.25;;;;;;;;;;10432914;28;20021;-75
2022/12/10 19:01:38;;;;;;;15.88;6.30;;;;;;;;;;10419902;28;20040;-77
2022/12/10 19:06:39;;;;;;;16.38;6.40;;;;;;;;;;10408408;28;20037;-79
2022/12/10 19:11:39;;;;;;;11.48;5.15;;;;;;;;;;10440662;22;20506;-77
2022/12/10 19:16:40;;;;;;;10.98;5.05;;;;;;;;;;10382001;28;20040;-75
2022/12/10 19:21:40;;;;;;;13.48;5.85;;;;;;;;;;10405599;28;20029;-78
2022/12/10 19:26:41;;;;;;;14.40;5.07;;;;;;;;;;10385767;28;20025;-72
2022/12/10 19:31:42;;;;;;;14.93;6.25;;;;;;;;;;10396003;28;20029;-74
2022/12/10 19:36:42;;;;;;;16.73;7.00;;;;;;;;;;10383862;28;20140;-73
2022/12/10 19:41:43;;;;;;;15.20;7.22;;;;;;;;;;10386369;28;20342;-74
2022/12/10 19:46:44;;;;;;;18.27;7.07;;;;;;;;;;10367876;28;20029;-77
2022/12/10 19:51:45;;;;;;;15.63;7.90;;;;;;;;;;10376531;28;20033;-78
2022/12/10 19:56:46;;;;;;;16.92;6.82;;;;;;;;;;10378242;28;20028;-76
2022/12/10 20:01:46;;;;;;;14.83;6.43;;;;;;;;;;10380038;28;20372;-77
2022/12/10 20:06:47;;;;;;;19.10;6.60;;;;;;;;;;10387947;28;20021;-79
2022/12/10 20:11:47;;;;;;;19.33;7.65;;;;;;;;;;10387434;28;20057;-79
2022/12/10 20:16:49;;;;;;;16.13;6.65;;;;;;;;;;10385468;28;20025;-79
2022/12/10 20:21:50;;;;;;;16.00;7.10;;;;;;;;;;10387688;28;20029;-77
2022/12/10 20:26:51;;;;;;;12.63;6.25;;;;;;;;;;10381768;28;20537;-79
2022/12/10 20:31:52;;;;;;;16.00;7.70;;;;;;;;;;10387375;28;20033;-76
2022/12/10 20:36:53;;;;;;;14.15;7.90;;;;;;;;;;10387484;28;20510;-81
2022/12/10 20:41:54;;;;;;;14.97;7.53;;;;;;;;;;10386757;28;20029;-77
2022/12/10 20:46:55;;;;;;;17.80;8.02;;;;;;;;;;10387247;28;20081;-78
2022/12/10 20:51:55;;;;;;;17.20;7.47;;;;;;;;;;10385829;28;20026;-78
2022/12/10 20:56:58;;;;;;;19.33;7.90;;;;;;;;;;10385534;28;20116;-73
2022/12/10 21:01:58;;;;;;;20.67;7.57;;;;;;;;;;10403195;28;20029;-78
2022/12/10 21:06:58;;;;;;;21.10;7.57;;;;;;;;;;10385307;28;20500;-73
2022/12/10 21:11:58;;;;;;;14.33;8.17;;;;;;;;;;10400564;28;20057;-77
2022/12/10 21:16:59;;;;;;;18.90;8.37;;;;;;;;;;10385624;28;20026;-78
2022/12/10 21:21:59;;;;;;;21.27;8.67;;;;;;;;;;10373455;28;20029;-75
2022/12/10 21:26:59;;;;;;;16.38;8.13;;;;;;;;;;10385501;28;20040;-80
2022/12/10 21:32:00;;;;;;;18.83;8.52;;;;;;;;;;10383909;28;20034;-79
2022/12/10 21:37:00;;;;;;;19.42;7.97;;;;;;;;;;10384657;28;20033;-74
2022/12/10 21:47:19;;;;;;;17.45;8.32;;;;;;;;;;10401702;28;20033;-77
2022/12/10 21:52:19;;;;;;;26.53;8.77;;;;;;;;;;10372940;28;20381;-73
2022/12/10 21:57:20;;;;;;;14.57;7.25;;;;;;;;;;10410620;28;20096;-73
2022/12/10 22:02:20;;;;;;;17.67;8.30;;;;;;;;;;10413919;28;20029;-73
2022/12/10 22:07:23;;;;;;;21.00;9.45;;;;;;;;;;10395478;28;20029;-74
2022/12/10 22:12:23;;;;;;;18.80;8.77;;;;;;;;;;10408271;28;20049;-73
2022/12/10 22:17:24;;;;;;;18.92;8.52;;;;;;;;;;10403821;28;20025;-74
2022/12/10 22:22:24;;;;;;;22.98;9.15;;;;;;;;;;10397356;28;20036;-73
2022/12/10 22:27:31;;;;;;;17.85;9.00;;;;;;;;;;10378337;28;20542;-75
2022/12/10 22:32:31;;;;;;;22.38;9.05;;;;;;;;;;10374825;28;20048;-77
2022/12/10 22:37:32;;;;;;;22.23;8.88;;;;;;;;;;10374523;28;20359;-76
2022/12/10 22:42:33;;;;;;;19.33;8.20;;;;;;;;;;10380781;28;20033;-75
2022/12/10 22:47:33;;;;;;;22.15;9.70;;;;;;;;;;10382555;28;20025;-74
2022/12/10 22:52:33;;;;;;;18.60;9.10;;;;;;;;;;10389372;28;20484;-74
2022/12/10 22:57:34;;;;;;;18.95;9.52;;;;;;;;;;10394039;28;20116;-73
2022/12/10 23:02:34;;;;;;;22.98;9.38;;;;;;;;;;10381031;28;20032;-72
2022/12/10 23:07:35;;;;;;;21.73;11.15;;;;;;;;;;10381015;28;20075;-73
2022/12/10 23:17:54;;;;;;;22.83;11.48;;;;;;;;;;10393975;28;20029;-81
2022/12/10 23:22:54;;;;;;;20.15;10.20;;;;;;;;;;10378739;28;20040;-74
2022/12/10 23:27:54;;;;;;;26.35;10.52;;;;;;;;;;10367973;28;20029;-78
2022/12/10 23:32:55;;;;;;;20.48;9.77;;;;;;;;;;10411187;28;20037;-73
2022/12/10 23:37:55;;;;;;;16.80;9.17;;;;;;;;;;10398642;28;20037;-75
2022/12/10 23:42:55;;;;;;;22.27;10.25;;;;;;;;;;10381687;28;20411;-79
2022/12/10 23:47:55;;;;;;;24.45;9.68;;;;;;;;;;10381526;28;20461;-75
2022/12/10 23:52:56;;;;;;;22.53;10.33;;;;;;;;;;10381287;28;20040;-74
2022/12/10 23:57:56;;;;;;;23.65;9.57;;;;;;;;;;10398579;28;20036;-74
